createdAt,value
2023-05-21T00:02:00.132Z,76.75
2023-05-21T00:04:25.509Z,77.89
2023-05-21T00:06:51.628Z,80.02
2023-05-21T00:09:15.340Z,78.78
2023-05-21T00:11:38.964Z,78.44
2023-05-21T00:14:02.694Z,79.78
2023-05-21T00:16:27.013Z,78.74
2023-05-21T00:18:50.914Z,78.50
2023-05-21T00:21:17.291Z,78.82
2023-05-21T00:23:42.820Z,79.89
2023-05-21T00:26:06.543Z,77.47
2023-05-21T00:28:30.118Z,77.14
2023-05-21T00:30:53.653Z,79.05
2023-05-21T00:33:17.746Z,78.75
2023-05-21T00:35:41.650Z,78.92
2023-05-21T00:38:07.627Z,78.53
2023-05-21T00:40:32.690Z,79.14
2023-05-21T00:42:57.249Z,80.20
2023-05-21T00:45:24.078Z,78.87
2023-05-21T00:47:48.530Z,79.77
2023-05-21T00:50:15.067Z,78.49
2023-05-21T00:52:42.270Z,78.72
2023-05-21T00:55:07.401Z,77.77
2023-05-21T00:57:33.403Z,79.02
2023-05-21T00:59:57.157Z,79.58
2023-05-21T01:02:24.108Z,79.83
2023-05-21T01:04:48.118Z,80.36
2023-05-21T01:07:12.579Z,78.35
2023-05-21T01:09:36.182Z,80.92
2023-05-21T01:12:01.015Z,80.69
2023-05-21T01:14:26.725Z,79.20
2023-05-21T01:16:52.227Z,80.30
2023-05-21T01:19:19.894Z,79.73
2023-05-21T01:21:47.291Z,80.00
2023-05-21T01:24:12.275Z,80.82
2023-05-21T01:26:38.897Z,79.86
2023-05-21T01:29:02.601Z,79.46
2023-05-21T01:31:35.871Z,79.68
2023-05-21T01:34:06.717Z,80.29
2023-05-21T01:36:42.195Z,80.23
2023-05-21T01:39:13.718Z,79.35
2023-05-21T01:41:42.957Z,79.41
2023-05-21T01:44:10.174Z,78.70
2023-05-21T01:46:36.819Z,78.75
2023-05-21T01:49:01.138Z,78.75
2023-05-21T01:51:26.098Z,79.73
2023-05-21T01:53:49.704Z,79.71
2023-05-21T01:56:16.087Z,79.30
2023-05-21T01:58:39.859Z,80.80
2023-05-21T02:01:04.657Z,81.17
2023-05-21T02:03:31.212Z,80.01
2023-05-21T02:05:55.781Z,80.84
2023-05-21T02:08:19.784Z,81.10
2023-05-21T02:10:43.469Z,79.33
2023-05-21T02:13:08.693Z,83.75
2023-05-21T02:15:34.903Z,81.08
2023-05-21T02:17:58.793Z,81.98
2023-05-21T02:20:22.934Z,79.51
2023-05-21T02:22:48.137Z,78.90
2023-05-21T02:25:14.525Z,81.35
2023-05-21T02:27:39.677Z,79.45
2023-05-21T02:30:06.319Z,80.28
2023-05-21T02:32:31.892Z,81.62
2023-05-21T02:34:55.509Z,81.53
2023-05-21T02:37:19.099Z,83.04
2023-05-21T02:39:42.832Z,82.42
2023-05-21T02:42:06.731Z,83.16
2023-05-21T02:44:30.617Z,80.09
2023-05-21T02:46:55.647Z,81.86
2023-05-21T02:49:19.668Z,81.31
2023-05-21T02:51:44.358Z,83.81
2023-05-21T02:54:08.031Z,81.57
2023-05-21T02:56:31.610Z,81.58
2023-05-21T02:58:55.217Z,81.43
2023-05-21T03:01:19.341Z,82.40
2023-05-21T03:03:44.491Z,84.00
2023-05-21T03:06:10.163Z,83.31
2023-05-21T03:08:33.803Z,83.31
2023-05-21T03:10:57.383Z,80.37
2023-05-21T03:13:21.631Z,83.55
2023-05-21T03:15:46.606Z,82.41
2023-05-21T03:18:11.931Z,82.22
2023-05-21T03:20:43.497Z,85.90
2023-05-21T03:23:07.173Z,86.61
2023-05-21T03:25:31.024Z,83.01
2023-05-21T03:27:54.605Z,83.68
2023-05-21T03:30:39.619Z,83.13
2023-05-21T03:33:25.229Z,84.27
2023-05-21T03:35:50.834Z,84.41
2023-05-21T03:38:14.505Z,83.87
2023-05-21T03:40:38.090Z,83.56
2023-05-21T03:43:01.760Z,83.66
2023-05-21T03:45:25.434Z,83.71
2023-05-21T03:48:11.815Z,83.62
2023-05-21T03:50:35.468Z,83.93
2023-05-21T03:53:00.490Z,84.59
2023-05-21T03:55:25.220Z,85.49
2023-05-21T03:57:48.813Z,85.09
2023-05-21T04:00:14.058Z,87.66
2023-05-21T04:02:40.237Z,88.35
2023-05-21T04:05:05.106Z,85.92
2023-05-21T04:07:30.091Z,87.99
2023-05-21T04:09:55.182Z,88.74
2023-05-21T04:12:20.263Z,86.25
2023-05-21T04:14:44.213Z,89.38
2023-05-21T04:17:09.076Z,92.02
2023-05-21T04:19:33.002Z,90.40
2023-05-21T04:21:58.151Z,91.54
2023-05-21T04:24:22.644Z,92.05
2023-05-21T04:27:10.935Z,94.53
2023-05-21T04:29:34.675Z,94.35
2023-05-21T04:31:58.328Z,95.96
2023-05-21T04:34:21.928Z,96.35
2023-05-21T04:36:46.342Z,96.29
2023-05-21T04:39:10.584Z,95.08
2023-05-21T04:41:34.284Z,95.79
2023-05-21T04:43:59.297Z,96.81
2023-05-21T04:46:26.887Z,94.47
2023-05-21T04:48:51.079Z,94.55
2023-05-21T04:51:15.096Z,94.66
2023-05-21T04:53:39.042Z,93.85
2023-05-21T04:56:03.987Z,93.90
2023-05-21T04:58:27.985Z,93.28
2023-05-21T05:00:53.831Z,93.54
2023-05-21T05:03:17.683Z,93.37
2023-05-21T05:05:41.894Z,91.75
2023-05-21T05:08:06.913Z,90.72
2023-05-21T05:10:30.637Z,90.05
2023-05-21T05:12:54.279Z,89.83
2023-05-21T05:15:18.097Z,88.86
2023-05-21T05:17:43.286Z,89.21
2023-05-21T05:20:09.978Z,87.58
2023-05-21T05:22:34.308Z,87.70
2023-05-21T05:24:57.857Z,87.04
2023-05-21T05:27:21.848Z,86.27
2023-05-21T05:29:45.866Z,86.25
2023-05-21T05:32:10.042Z,86.13
2023-05-21T05:34:35.142Z,85.47
2023-05-21T05:36:58.904Z,85.33
2023-05-21T05:39:22.523Z,83.94
2023-05-21T05:41:47.109Z,83.15
2023-05-21T05:44:11.076Z,83.92
2023-05-21T05:46:34.806Z,82.77
2023-05-21T05:48:58.405Z,81.80
2023-05-21T05:51:23.489Z,81.04
2023-05-21T05:53:47.727Z,80.34
2023-05-21T05:56:11.361Z,80.07
2023-05-21T05:58:35.539Z,78.00
2023-05-21T06:01:10.669Z,78.11
2023-05-21T06:03:34.781Z,76.95
2023-05-21T06:06:06.024Z,77.27
2023-05-21T06:08:31.643Z,76.25
2023-05-21T06:10:55.330Z,75.10
2023-05-21T06:13:19.012Z,73.50
2023-05-21T06:15:43.533Z,72.39
2023-05-21T06:18:07.359Z,74.29
2023-05-21T06:20:31.064Z,72.19
2023-05-21T06:22:55.654Z,71.51
2023-05-21T06:25:20.811Z,70.86
2023-05-21T06:27:44.526Z,69.35
2023-05-21T06:30:14.966Z,68.32
2023-05-21T06:32:38.685Z,69.68
2023-05-21T06:35:02.336Z,68.55
2023-05-21T06:37:26.738Z,69.09
2023-05-21T06:39:51.001Z,70.05
2023-05-21T06:42:16.048Z,69.42
2023-05-21T06:44:58.164Z,69.72
2023-05-21T06:47:33.717Z,68.55
2023-05-21T06:49:57.426Z,67.78
2023-05-21T06:52:21.161Z,68.54
2023-05-21T06:54:45.428Z,68.28
2023-05-21T06:57:09.111Z,67.28
2023-05-21T06:59:34.200Z,66.71
2023-05-21T07:01:59.307Z,67.62
2023-05-21T07:04:23.026Z,67.01
2023-05-21T07:06:46.853Z,66.43
2023-05-21T07:09:10.841Z,67.18
2023-05-21T07:11:34.989Z,65.97
2023-05-21T07:14:01.756Z,68.04
2023-05-21T07:16:28.874Z,67.38
2023-05-21T07:18:53.890Z,67.34
2023-05-21T07:21:17.584Z,66.97
2023-05-21T07:23:43.315Z,66.38
2023-05-21T07:26:07.009Z,65.96
2023-05-21T07:28:31.210Z,65.54
2023-05-21T07:30:55.059Z,65.40
2023-05-21T07:33:26.379Z,65.75
2023-05-21T07:35:50.335Z,65.08
2023-05-21T07:38:14.687Z,65.61
2023-05-21T07:40:38.470Z,65.40
2023-05-21T07:43:02.161Z,65.12
2023-05-21T07:45:27.387Z,63.36
2023-05-21T07:47:51.250Z,62.89
2023-05-21T07:50:16.621Z,62.34
2023-05-21T07:52:40.335Z,61.93
2023-05-21T07:55:04.414Z,62.22
2023-05-21T07:57:32.009Z,59.38
2023-05-21T08:00:05.265Z,60.35
2023-05-21T08:02:39.065Z,59.53
2023-05-21T08:05:03.002Z,59.31
2023-05-21T08:07:28.825Z,59.37
2023-05-21T08:09:54.275Z,58.94
2023-05-21T08:12:19.308Z,59.45
2023-05-21T08:14:43.087Z,58.17
2023-05-21T08:17:11.170Z,58.39
2023-05-21T08:19:35.254Z,56.54
2023-05-21T08:21:59.010Z,56.62
2023-05-21T08:24:24.967Z,57.12
2023-05-21T08:26:49.677Z,55.04
2023-05-21T08:29:13.452Z,54.98
2023-05-21T08:31:37.156Z,56.29
2023-05-21T08:34:00.960Z,55.58
2023-05-21T08:36:43.094Z,56.28
2023-05-21T08:39:19.974Z,55.03
2023-05-21T08:41:49.677Z,54.44
2023-05-21T08:44:14.037Z,53.12
2023-05-21T08:46:38.836Z,53.23
2023-05-21T08:49:04.577Z,54.03
2023-05-21T08:51:30.693Z,53.61
2023-05-21T08:53:55.895Z,52.59
2023-05-21T08:56:21.261Z,51.74
2023-05-21T08:58:55.590Z,51.92
2023-05-21T09:01:26.318Z,52.16
2023-05-21T09:04:19.469Z,52.19
2023-05-21T09:06:47.121Z,52.39
2023-05-21T09:09:19.502Z,52.86
2023-05-21T09:11:47.385Z,51.46
2023-05-21T09:14:14.706Z,51.39
2023-05-21T09:16:53.689Z,51.13
2023-05-21T09:19:17.446Z,51.62
2023-05-21T09:21:41.172Z,51.14
2023-05-21T09:24:12.006Z,50.80
2023-05-21T09:26:36.664Z,52.03
2023-05-21T09:29:02.800Z,50.35
2023-05-21T09:31:28.929Z,51.02
2023-05-21T09:33:53.316Z,49.95
2023-05-21T09:36:21.985Z,49.77
2023-05-21T09:38:47.014Z,48.57
2023-05-21T09:41:10.816Z,49.06
2023-05-21T09:43:35.626Z,49.07
2023-05-21T09:46:02.189Z,49.23
2023-05-21T09:48:40.838Z,47.92
2023-05-21T09:51:13.283Z,46.68
2023-05-21T09:53:37.038Z,48.55
2023-05-21T09:56:01.613Z,48.02
2023-05-21T09:58:25.462Z,47.12
2023-05-21T10:00:49.127Z,48.37
2023-05-21T10:03:17.077Z,45.50
2023-05-21T10:05:43.819Z,45.61
2023-05-21T10:08:10.491Z,45.43
2023-05-21T10:10:34.195Z,46.35
2023-05-21T10:13:04.134Z,44.74
2023-05-21T10:15:33.710Z,46.73
2023-05-21T10:17:57.902Z,43.83
2023-05-21T10:20:21.976Z,43.97
2023-05-21T10:22:47.408Z,43.66
2023-05-21T10:25:12.149Z,45.00
2023-05-21T10:27:37.084Z,43.36
2023-05-21T10:30:01.955Z,42.64
2023-05-21T10:32:26.744Z,42.40
2023-05-21T10:34:51.038Z,42.54
2023-05-21T10:37:16.281Z,42.62
2023-05-21T10:39:42.002Z,42.47
2023-05-21T10:42:20.173Z,43.99
2023-05-21T10:45:01.914Z,42.32
2023-05-21T10:47:50.209Z,42.38
2023-05-21T10:50:45.884Z,42.33
2023-05-21T10:53:18.119Z,42.40
2023-05-21T10:56:00.249Z,42.34
2023-05-21T10:59:01.791Z,42.30
2023-05-21T11:01:30.162Z,43.97
2023-05-21T11:03:54.001Z,42.94
2023-05-21T11:06:26.286Z,41.85
2023-05-21T11:08:51.005Z,44.70
2023-05-21T11:11:45.178Z,42.45
2023-05-21T11:14:35.503Z,42.93
2023-05-21T11:16:59.712Z,42.34
2023-05-21T11:19:23.373Z,41.55
2023-05-21T11:21:52.688Z,40.47
2023-05-21T11:24:21.303Z,42.20
2023-05-21T11:27:06.798Z,40.85
2023-05-21T11:29:44.991Z,39.76
2023-05-21T11:32:10.501Z,39.84
2023-05-21T11:34:40.910Z,39.87
2023-05-21T11:37:29.445Z,39.51
2023-05-21T11:39:53.690Z,39.05
2023-05-21T11:42:30.524Z,40.32
2023-05-21T11:44:54.285Z,39.73
2023-05-21T11:47:21.128Z,39.51
2023-05-21T11:49:46.017Z,39.61
2023-05-21T11:52:11.436Z,38.59
2023-05-21T11:54:41.035Z,38.80
2023-05-21T11:57:07.862Z,40.28
2023-05-21T11:59:33.462Z,38.24
2023-05-21T12:01:57.231Z,37.19
2023-05-21T12:04:21.336Z,36.65
2023-05-21T12:06:44.985Z,38.03
2023-05-21T12:09:10.027Z,37.50
2023-05-21T12:11:34.022Z,37.34
2023-05-21T12:13:58.365Z,38.57
2023-05-21T12:16:24.635Z,36.76
2023-05-21T12:18:48.351Z,36.16
2023-05-21T12:21:12.756Z,36.89
2023-05-21T12:23:37.654Z,36.33
2023-05-21T12:26:01.320Z,36.81
2023-05-21T12:28:25.746Z,35.47
2023-05-21T12:30:49.920Z,35.55
2023-05-21T12:33:17.958Z,36.07
2023-05-21T12:35:41.647Z,34.87
2023-05-21T12:38:05.393Z,35.79
2023-05-21T12:40:38.647Z,35.32
2023-05-21T12:43:02.842Z,36.49
2023-05-21T12:45:26.600Z,35.25
2023-05-21T12:47:56.148Z,36.51
2023-05-21T12:50:23.428Z,36.34
2023-05-21T12:52:47.057Z,35.58
2023-05-21T12:55:12.039Z,36.37
2023-05-21T12:57:39.504Z,36.10
2023-05-21T13:00:06.635Z,36.03
2023-05-21T13:02:33.401Z,35.72
2023-05-21T13:04:59.138Z,36.39
2023-05-21T13:07:24.514Z,36.29
2023-05-21T13:09:48.771Z,36.20
2023-05-21T13:12:13.933Z,34.93
2023-05-21T13:14:37.533Z,35.07
2023-05-21T13:17:01.280Z,36.12
2023-05-21T13:19:24.935Z,35.67
2023-05-21T13:21:48.582Z,33.83
2023-05-21T13:24:13.559Z,34.42
2023-05-21T13:26:37.176Z,35.18
2023-05-21T13:29:01.063Z,35.58
2023-05-21T13:31:24.623Z,34.81
2023-05-21T13:33:48.215Z,34.86
2023-05-21T13:36:12.313Z,35.07
2023-05-21T13:38:35.881Z,34.12
2023-05-21T13:41:01.287Z,34.31
2023-05-21T13:43:24.985Z,34.57
2023-05-21T13:45:49.946Z,34.70
2023-05-21T13:48:13.695Z,35.16
2023-05-21T13:50:37.573Z,34.22
2023-05-21T13:53:01.371Z,35.37
2023-05-21T13:55:24.969Z,35.34
2023-05-21T13:57:49.989Z,35.07
2023-05-21T14:00:16.155Z,33.87
2023-05-21T14:02:40.067Z,33.88
2023-05-21T14:05:03.756Z,34.72
2023-05-21T14:07:27.370Z,34.94
2023-05-21T14:09:51.258Z,33.89
2023-05-21T14:12:14.993Z,34.18
2023-05-21T14:14:39.990Z,34.82
2023-05-21T14:17:03.581Z,34.88
2023-05-21T14:19:27.335Z,35.12
2023-05-21T14:21:53.697Z,34.27
2023-05-21T14:24:17.282Z,34.84
2023-05-21T14:26:42.933Z,34.13
2023-05-21T14:29:06.496Z,34.13
2023-05-21T14:31:31.754Z,33.27
2023-05-21T14:33:55.356Z,34.33
2023-05-21T14:36:19.242Z,34.17
2023-05-21T14:38:42.896Z,33.90
2023-05-21T14:41:07.238Z,34.39
2023-05-21T14:43:30.853Z,33.13
2023-05-21T14:45:54.480Z,34.01
2023-05-21T14:48:22.916Z,34.05
2023-05-21T14:50:46.542Z,33.81
2023-05-21T14:53:12.075Z,33.99
2023-05-21T14:55:37.216Z,34.05
2023-05-21T14:58:01.054Z,33.31
2023-05-21T15:00:24.928Z,33.62
2023-05-21T15:02:48.744Z,34.42
2023-05-21T15:05:14.302Z,33.71
2023-05-21T15:07:38.070Z,34.39
2023-05-21T15:10:01.691Z,35.30
2023-05-21T15:12:25.339Z,33.59
2023-05-21T15:14:48.990Z,33.62
2023-05-21T15:17:12.678Z,33.60
2023-05-21T15:19:36.458Z,34.31
2023-05-21T15:22:01.526Z,34.22
2023-05-21T15:24:25.157Z,34.26
2023-05-21T15:26:49.347Z,34.36
2023-05-21T15:29:12.929Z,34.25
2023-05-21T15:31:36.594Z,34.51
2023-05-21T15:34:00.540Z,33.97
2023-05-21T15:36:24.199Z,34.18
2023-05-21T15:38:49.293Z,34.56
2023-05-21T15:41:12.923Z,34.42
2023-05-21T15:43:37.372Z,33.99
2023-05-21T15:46:01.322Z,34.40
2023-05-21T15:48:24.904Z,35.46
2023-05-21T15:50:48.511Z,34.68
2023-05-21T15:53:12.588Z,34.88
2023-05-21T15:55:37.989Z,34.87
2023-05-21T15:58:02.609Z,36.11
2023-05-21T16:00:26.377Z,34.79
2023-05-21T16:02:50.093Z,34.36
2023-05-21T16:05:13.792Z,35.28
2023-05-21T16:07:38.317Z,36.21
2023-05-21T16:10:02.174Z,35.02
2023-05-21T16:12:27.182Z,35.06
2023-05-21T16:14:51.086Z,35.93
2023-05-21T16:17:14.808Z,35.44
2023-05-21T16:19:38.515Z,35.89
2023-05-21T16:22:02.632Z,36.86
2023-05-21T16:24:26.235Z,36.12
2023-05-21T16:26:49.958Z,36.08
2023-05-21T16:29:14.975Z,35.57
2023-05-21T16:31:38.899Z,36.41
2023-05-21T16:34:02.590Z,35.32
2023-05-21T16:36:26.248Z,34.87
2023-05-21T16:38:49.866Z,35.69
2023-05-21T16:41:13.517Z,34.74
2023-05-21T16:43:37.309Z,35.55
2023-05-21T16:46:02.365Z,35.09
2023-05-21T16:48:26.059Z,35.75
2023-05-21T16:50:50.191Z,35.77
2023-05-21T16:53:14.020Z,36.43
2023-05-21T16:55:39.514Z,35.39
2023-05-21T16:58:05.337Z,35.54
2023-05-21T17:00:29.179Z,36.90
2023-05-21T17:02:54.839Z,35.67
2023-05-21T17:05:18.636Z,36.01
2023-05-21T17:07:42.446Z,36.21
2023-05-21T17:10:08.025Z,35.96
2023-05-21T17:12:31.745Z,37.84
2023-05-21T17:14:55.530Z,37.13
2023-05-21T17:17:19.538Z,36.96
2023-05-21T17:19:44.851Z,36.13
2023-05-21T17:22:08.472Z,36.39
2023-05-21T17:24:32.109Z,36.49
2023-05-21T17:26:55.776Z,36.83
2023-05-21T17:29:19.775Z,36.52
2023-05-21T17:31:43.508Z,38.30
2023-05-21T17:34:07.194Z,36.88
2023-05-21T17:36:32.369Z,38.80
2023-05-21T17:38:56.499Z,38.06
2023-05-21T17:41:20.152Z,37.37
2023-05-21T17:43:43.725Z,37.09
2023-05-21T17:46:07.283Z,37.71
2023-05-21T17:48:30.916Z,37.40
2023-05-21T17:50:54.664Z,37.04
2023-05-21T17:53:19.808Z,37.48
2023-05-21T17:55:43.517Z,38.73
2023-05-21T17:58:07.193Z,37.83
2023-05-21T18:00:32.158Z,37.61
2023-05-21T18:02:55.815Z,38.03
2023-05-21T18:05:19.629Z,38.57
2023-05-21T18:07:43.224Z,38.31
2023-05-21T18:10:09.544Z,38.19
2023-05-21T18:12:33.155Z,38.11
2023-05-21T18:14:56.768Z,38.46
2023-05-21T18:17:20.437Z,38.95
2023-05-21T18:19:44.023Z,38.11
2023-05-21T18:22:07.689Z,40.13
2023-05-21T18:24:31.311Z,39.06
2023-05-21T18:26:56.320Z,38.95
2023-05-21T18:29:19.943Z,40.10
2023-05-21T18:31:45.461Z,38.51
2023-05-21T18:34:09.181Z,39.25
2023-05-21T18:36:38.739Z,39.80
2023-05-21T18:39:02.474Z,40.37
2023-05-21T18:41:26.508Z,39.89
2023-05-21T18:43:52.258Z,39.94
2023-05-21T18:46:15.915Z,40.65
2023-05-21T18:48:39.676Z,40.53
2023-05-21T18:51:03.480Z,40.61
2023-05-21T18:53:27.130Z,41.61
2023-05-21T18:55:50.776Z,40.91
2023-05-21T18:58:14.425Z,41.77
2023-05-21T19:00:39.769Z,42.21
2023-05-21T19:03:03.628Z,42.14
2023-05-21T19:05:28.183Z,43.28
2023-05-21T19:07:52.594Z,42.64
2023-05-21T19:10:16.249Z,42.45
2023-05-21T19:12:41.926Z,43.20
2023-05-21T19:15:06.329Z,43.48
2023-05-21T19:17:31.343Z,43.15
2023-05-21T19:19:56.212Z,43.09
2023-05-21T19:22:19.816Z,43.41
2023-05-21T19:24:45.326Z,43.25
2023-05-21T19:27:08.916Z,44.28
2023-05-21T19:29:32.553Z,43.93
2023-05-21T19:31:56.436Z,44.69
2023-05-21T19:34:21.602Z,43.71
2023-05-21T19:36:53.060Z,44.03
2023-05-21T19:39:17.824Z,44.93
2023-05-21T19:41:42.038Z,43.82
2023-05-21T19:44:05.869Z,46.42
2023-05-21T19:46:29.506Z,45.74
2023-05-21T19:48:53.147Z,45.94
2023-05-21T19:51:18.357Z,46.37
2023-05-21T19:53:42.026Z,45.67
2023-05-21T19:56:05.708Z,45.19
2023-05-21T19:58:30.371Z,46.18
2023-05-21T20:00:55.840Z,45.86
2023-05-21T20:03:19.612Z,46.22
2023-05-21T20:05:43.175Z,46.75
2023-05-21T20:08:08.380Z,45.98
2023-05-21T20:10:31.902Z,46.09
2023-05-21T20:12:55.547Z,46.85
2023-05-21T20:15:19.449Z,48.46
2023-05-21T20:17:44.777Z,47.51
2023-05-21T20:20:10.473Z,48.20
2023-05-21T20:22:34.254Z,47.28
2023-05-21T20:24:59.182Z,47.78
2023-05-21T20:27:23.226Z,47.90
2023-05-21T20:29:46.898Z,48.17
2023-05-21T20:32:10.903Z,47.87
2023-05-21T20:34:34.550Z,48.55
2023-05-21T20:36:58.508Z,48.99
2023-05-21T20:39:22.978Z,49.56
2023-05-21T20:41:48.354Z,48.86
2023-05-21T20:44:12.062Z,48.62
2023-05-21T20:46:38.237Z,48.73
2023-05-21T20:49:02.300Z,48.93
2023-05-21T20:51:26.140Z,49.31
2023-05-21T20:53:49.694Z,49.37
2023-05-21T20:56:16.991Z,49.61
2023-05-21T20:58:44.835Z,50.29
2023-05-21T21:01:10.650Z,50.01
2023-05-21T21:03:34.993Z,49.64
2023-05-21T21:06:01.120Z,50.05
2023-05-21T21:08:24.678Z,49.23
2023-05-21T21:10:48.242Z,51.25
2023-05-21T21:13:11.824Z,51.89
2023-05-21T21:15:37.227Z,51.32
2023-05-21T21:18:01.056Z,51.00
2023-05-21T21:20:24.669Z,51.19
2023-05-21T21:22:48.350Z,54.69
2023-05-21T21:25:12.262Z,52.11
2023-05-21T21:27:36.223Z,52.11
2023-05-21T21:29:59.846Z,51.53
2023-05-21T21:32:24.834Z,53.13
2023-05-21T21:34:48.459Z,53.01
2023-05-21T21:37:13.334Z,52.57
2023-05-21T21:39:37.203Z,51.37
2023-05-21T21:42:00.960Z,51.99
2023-05-21T21:44:24.554Z,51.07
2023-05-21T21:46:48.137Z,50.60
2023-05-21T21:49:14.376Z,50.43
2023-05-21T21:51:38.000Z,50.33
2023-05-21T21:54:01.614Z,50.21
2023-05-21T21:56:25.260Z,50.44
2023-05-21T21:58:48.947Z,50.01
2023-05-21T22:01:12.616Z,50.05
2023-05-21T22:03:37.289Z,49.53
2023-05-21T22:06:02.385Z,49.70
2023-05-21T22:08:28.378Z,49.99
2023-05-21T22:10:52.516Z,49.76
2023-05-21T22:13:16.143Z,49.59
2023-05-21T22:15:39.874Z,48.83
2023-05-21T22:18:03.809Z,48.95
2023-05-21T22:20:29.246Z,49.47
2023-05-21T22:22:55.411Z,48.66
2023-05-21T22:25:19.408Z,48.97
2023-05-21T22:27:43.271Z,48.98
2023-05-21T22:30:08.645Z,48.46
2023-05-21T22:32:32.216Z,48.30
2023-05-21T22:34:55.820Z,49.17
2023-05-21T22:37:19.624Z,47.98
2023-05-21T22:39:44.581Z,47.93
2023-05-21T22:42:08.565Z,47.81
2023-05-21T22:44:32.162Z,47.35
2023-05-21T22:46:56.476Z,47.87
2023-05-21T22:49:20.251Z,47.11
2023-05-21T22:51:44.979Z,47.10
2023-05-21T22:54:08.588Z,47.00
2023-05-21T22:56:33.573Z,47.23
2023-05-21T22:58:57.193Z,46.53
2023-05-21T23:01:21.107Z,46.70
2023-05-21T23:03:44.686Z,46.56
2023-05-21T23:06:08.542Z,46.08
2023-05-21T23:08:32.116Z,46.28
2023-05-21T23:10:55.690Z,45.90
2023-05-21T23:13:20.837Z,45.82
2023-05-21T23:15:44.464Z,46.06
2023-05-21T23:18:08.940Z,46.21
2023-05-21T23:20:33.734Z,46.22
2023-05-21T23:22:57.661Z,45.78
2023-05-21T23:25:21.265Z,45.90
2023-05-21T23:27:44.923Z,45.22
2023-05-21T23:30:11.722Z,45.55
2023-05-21T23:32:35.387Z,45.77
2023-05-21T23:34:58.996Z,45.57
2023-05-21T23:37:23.222Z,45.64
2023-05-21T23:39:49.685Z,45.67
2023-05-21T23:42:13.448Z,45.91
2023-05-21T23:44:37.058Z,45.10
2023-05-21T23:47:02.057Z,45.82
2023-05-21T23:49:25.821Z,47.42
2023-05-21T23:51:50.595Z,46.09
2023-05-21T23:54:15.240Z,46.34
2023-05-21T23:56:38.809Z,47.11
2023-05-21T23:59:02.365Z,46.55
